Terminal Aerodrome Forecast
Issued by NWS Twin Cities, MN

Home | Current Version | Previous Version | Text Only | Print | Product List | Glossary On
Versions: 1 2 3 4 5 6 7 8 9 10 11 12 13 14 15 16 17 18 19 20 21 22 23 24 25 26
000
FTUS43 KMPX 301100
TAFMSP
TAF
KMSP 301125Z 3012/3118 12004KT P6SM VCSH SCT035 BKN060
     FM301800 36008KT P6SM SCT025 BKN035 OVC050
     FM302000 34014G20KT P6SM BKN025
     FM302300 34018G26KT P6SM BKN035
     FM310600 33014KT P6SM SKC=

USA.gov is the U.S. government's official web portal to all federal, state and local government web resources and services.